sensor_id;sensor_type;location;lat;lon;timestamp;temperature;humidity
3542;DHT22;1785;47.388;8.538;2023-11-19T00:00:11;10.50;99.90
3542;DHT22;1785;47.388;8.538;2023-11-19T00:02:37;10.70;99.90
3542;DHT22;1785;47.388;8.538;2023-11-19T00:05:04;10.70;99.90
3542;DHT22;1785;47.388;8.538;2023-11-19T00:07:32;10.30;99.90
3542;DHT22;1785;47.388;8.538;2023-11-19T00:09:58;10.40;99.90
3542;DHT22;1785;47.388;8.538;2023-11-19T00:12:29;10.60;99.90
3542;DHT22;1785;47.388;8.538;2023-11-19T00:14:55;10.70;99.90
3542;DHT22;1785;47.388;8.538;2023-11-19T00:17:22;11.00;99.90
3542;DHT22;1785;47.388;8.538;2023-11-19T00:19:48;11.10;99.90
3542;DHT22;1785;47.388;8.538;2023-11-19T00:22:16;11.10;99.90
3542;DHT22;1785;47.388;8.538;2023-11-19T00:24:42;11.10;99.90
3542;DHT22;1785;47.388;8.538;2023-11-19T00:27:10;11.20;99.90
3542;DHT22;1785;47.388;8.538;2023-11-19T00:29:37;11.10;99.90
3542;DHT22;1785;47.388;8.538;2023-11-19T00:32:03;11.10;99.90
3542;DHT22;1785;47.388;8.538;2023-11-19T00:34:31;11.10;99.90
3542;DHT22;1785;47.388;8.538;2023-11-19T00:36:57;11.20;99.90
3542;DHT22;1785;47.388;8.538;2023-11-19T00:39:23;11.10;99.90
3542;DHT22;1785;47.388;8.538;2023-11-19T00:41:49;10.90;99.90
3542;DHT22;1785;47.388;8.538;2023-11-19T00:44:15;10.90;99.90
3542;DHT22;1785;47.388;8.538;2023-11-19T00:46:41;11.00;99.90
3542;DHT22;1785;47.388;8.538;2023-11-19T00:49:08;10.80;99.90
3542;DHT22;1785;47.388;8.538;2023-11-19T00:51:34;10.80;99.90
3542;DHT22;1785;47.388;8.538;2023-11-19T00:54:00;10.80;99.90
3542;DHT22;1785;47.388;8.538;2023-11-19T00:56:27;10.90;99.90
3542;DHT22;1785;47.388;8.538;2023-11-19T00:58:53;10.90;99.90
3542;DHT22;1785;47.388;8.538;2023-11-19T01:01:19;10.60;99.90
3542;DHT22;1785;47.388;8.538;2023-11-19T01:03:46;10.70;99.90
3542;DHT22;1785;47.388;8.538;2023-11-19T01:06:12;10.80;99.90
3542;DHT22;1785;47.388;8.538;2023-11-19T01:08:40;10.90;99.90
3542;DHT22;1785;47.388;8.538;2023-11-19T01:11:08;11.00;99.90
3542;DHT22;1785;47.388;8.538;2023-11-19T01:13:34;10.90;99.90
3542;DHT22;1785;47.388;8.538;2023-11-19T01:16:00;10.90;99.90
3542;DHT22;1785;47.388;8.538;2023-11-19T01:18:27;11.00;99.90
3542;DHT22;1785;47.388;8.538;2023-11-19T01:20:53;11.20;99.90
3542;DHT22;1785;47.388;8.538;2023-11-19T01:23:19;11.30;99.90
3542;DHT22;1785;47.388;8.538;2023-11-19T01:25:46;11.30;99.90
3542;DHT22;1785;47.388;8.538;2023-11-19T01:28:13;11.30;99.90
3542;DHT22;1785;47.388;8.538;2023-11-19T01:30:39;11.00;99.90
3542;DHT22;1785;47.388;8.538;2023-11-19T01:33:06;11.20;99.90
3542;DHT22;1785;47.388;8.538;2023-11-19T01:35:33;11.20;99.90
3542;DHT22;1785;47.388;8.538;2023-11-19T01:37:59;11.00;99.90
3542;DHT22;1785;47.388;8.538;2023-11-19T01:40:25;11.00;99.90
3542;DHT22;1785;47.388;8.538;2023-11-19T01:42:52;11.10;99.90
3542;DHT22;1785;47.388;8.538;2023-11-19T01:45:27;11.30;99.90
3542;DHT22;1785;47.388;8.538;2023-11-19T01:47:53;11.20;99.90
3542;DHT22;1785;47.388;8.538;2023-11-19T01:50:20;11.40;99.90
3542;DHT22;1785;47.388;8.538;2023-11-19T01:52:47;11.50;99.90
3542;DHT22;1785;47.388;8.538;2023-11-19T01:55:14;11.60;99.90
3542;DHT22;1785;47.388;8.538;2023-11-19T01:57:40;11.50;99.90
3542;DHT22;1785;47.388;8.538;2023-11-19T02:00:09;11.60;99.90
3542;DHT22;1785;47.388;8.538;2023-11-19T02:02:37;11.70;99.90
3542;DHT22;1785;47.388;8.538;2023-11-19T02:05:03;11.70;99.90
3542;DHT22;1785;47.388;8.538;2023-11-19T02:07:29;11.70;99.90
3542;DHT22;1785;47.388;8.538;2023-11-19T02:09:56;11.60;99.90
3542;DHT22;1785;47.388;8.538;2023-11-19T02:12:24;11.30;99.90
3542;DHT22;1785;47.388;8.538;2023-11-19T02:14:50;11.40;99.90
3542;DHT22;1785;47.388;8.538;2023-11-19T02:17:27;11.50;99.90
3542;DHT22;1785;47.388;8.538;2023-11-19T02:19:54;11.40;99.90
3542;DHT22;1785;47.388;8.538;2023-11-19T02:22:20;11.40;99.90
3542;DHT22;1785;47.388;8.538;2023-11-19T02:24:47;11.50;99.90
3542;DHT22;1785;47.388;8.538;2023-11-19T02:27:20;11.70;99.90
3542;DHT22;1785;47.388;8.538;2023-11-19T02:29:49;11.50;99.90
3542;DHT22;1785;47.388;8.538;2023-11-19T02:32:15;11.60;99.90
3542;DHT22;1785;47.388;8.538;2023-11-19T02:34:41;11.70;99.90
3542;DHT22;1785;47.388;8.538;2023-11-19T02:37:07;11.70;99.90
3542;DHT22;1785;47.388;8.538;2023-11-19T02:39:33;11.80;99.90
3542;DHT22;1785;47.388;8.538;2023-11-19T02:42:00;11.80;99.90
3542;DHT22;1785;47.388;8.538;2023-11-19T02:44:26;11.80;99.90
3542;DHT22;1785;47.388;8.538;2023-11-19T02:46:54;11.80;99.90
3542;DHT22;1785;47.388;8.538;2023-11-19T02:49:20;11.80;99.90
3542;DHT22;1785;47.388;8.538;2023-11-19T02:51:47;11.80;99.90
3542;DHT22;1785;47.388;8.538;2023-11-19T02:54:13;11.90;99.90
3542;DHT22;1785;47.388;8.538;2023-11-19T02:56:42;11.70;99.90
3542;DHT22;1785;47.388;8.538;2023-11-19T02:59:08;11.60;99.90
3542;DHT22;1785;47.388;8.538;2023-11-19T03:01:43;11.60;99.90
3542;DHT22;1785;47.388;8.538;2023-11-19T03:04:16;11.70;99.90
3542;DHT22;1785;47.388;8.538;2023-11-19T03:06:45;11.40;99.90
3542;DHT22;1785;47.388;8.538;2023-11-19T03:09:11;11.50;99.90
3542;DHT22;1785;47.388;8.538;2023-11-19T03:11:38;11.40;99.90
3542;DHT22;1785;47.388;8.538;2023-11-19T03:14:04;11.60;99.90
3542;DHT22;1785;47.388;8.538;2023-11-19T03:16:31;11.60;99.90
3542;DHT22;1785;47.388;8.538;2023-11-19T03:19:00;11.70;99.90
3542;DHT22;1785;47.388;8.538;2023-11-19T03:21:30;11.80;99.90
3542;DHT22;1785;47.388;8.538;2023-11-19T03:23:56;11.80;99.90
3542;DHT22;1785;47.388;8.538;2023-11-19T03:26:25;11.60;99.90
3542;DHT22;1785;47.388;8.538;2023-11-19T03:28:51;11.80;99.90
3542;DHT22;1785;47.388;8.538;2023-11-19T03:31:18;11.90;99.90
3542;DHT22;1785;47.388;8.538;2023-11-19T03:33:44;11.90;99.90
3542;DHT22;1785;47.388;8.538;2023-11-19T03:36:10;11.90;99.90
3542;DHT22;1785;47.388;8.538;2023-11-19T03:38:38;11.90;99.90
3542;DHT22;1785;47.388;8.538;2023-11-19T03:41:10;11.90;99.90
3542;DHT22;1785;47.388;8.538;2023-11-19T03:43:37;11.90;99.90
3542;DHT22;1785;47.388;8.538;2023-11-19T03:46:03;11.90;99.90
3542;DHT22;1785;47.388;8.538;2023-11-19T03:48:30;11.90;99.90
3542;DHT22;1785;47.388;8.538;2023-11-19T03:50:56;11.90;99.90
3542;DHT22;1785;47.388;8.538;2023-11-19T03:53:23;12.00;99.90
3542;DHT22;1785;47.388;8.538;2023-11-19T03:55:50;11.80;99.90
3542;DHT22;1785;47.388;8.538;2023-11-19T03:58:16;11.70;99.90
3542;DHT22;1785;47.388;8.538;2023-11-19T04:00:42;11.70;99.90
3542;DHT22;1785;47.388;8.538;2023-11-19T04:03:08;11.70;99.90
3542;DHT22;1785;47.388;8.538;2023-11-19T04:05:34;11.80;99.90
3542;DHT22;1785;47.388;8.538;2023-11-19T04:08:00;11.90;99.90
3542;DHT22;1785;47.388;8.538;2023-11-19T04:10:27;12.20;99.90
3542;DHT22;1785;47.388;8.538;2023-11-19T04:12:53;12.10;99.90
3542;DHT22;1785;47.388;8.538;2023-11-19T04:15:19;12.00;99.90
3542;DHT22;1785;47.388;8.538;2023-11-19T04:17:46;12.00;99.90
3542;DHT22;1785;47.388;8.538;2023-11-19T04:20:12;11.90;99.90
3542;DHT22;1785;47.388;8.538;2023-11-19T04:22:39;11.90;99.90
3542;DHT22;1785;47.388;8.538;2023-11-19T04:25:06;11.90;99.90
3542;DHT22;1785;47.388;8.538;2023-11-19T04:27:32;12.00;99.90
3542;DHT22;1785;47.388;8.538;2023-11-19T04:29:59;11.90;99.90
3542;DHT22;1785;47.388;8.538;2023-11-19T04:32:27;12.00;99.90
3542;DHT22;1785;47.388;8.538;2023-11-19T04:34:53;12.00;99.90
3542;DHT22;1785;47.388;8.538;2023-11-19T04:37:19;11.70;99.90
3542;DHT22;1785;47.388;8.538;2023-11-19T04:39:45;11.50;99.90
3542;DHT22;1785;47.388;8.538;2023-11-19T04:42:11;11.40;99.90
3542;DHT22;1785;47.388;8.538;2023-11-19T04:44:38;11.40;99.90
3542;DHT22;1785;47.388;8.538;2023-11-19T04:47:05;11.40;99.90
3542;DHT22;1785;47.388;8.538;2023-11-19T04:49:31;11.60;99.90
3542;DHT22;1785;47.388;8.538;2023-11-19T04:51:57;11.80;99.90
3542;DHT22;1785;47.388;8.538;2023-11-19T04:54:23;11.80;99.90
3542;DHT22;1785;47.388;8.538;2023-11-19T04:56:50;11.80;99.90
3542;DHT22;1785;47.388;8.538;2023-11-19T04:59:16;12.00;99.90
3542;DHT22;1785;47.388;8.538;2023-11-19T05:01:46;12.10;99.90
3542;DHT22;1785;47.388;8.538;2023-11-19T05:04:13;12.10;99.90
3542;DHT22;1785;47.388;8.538;2023-11-19T05:06:39;12.20;99.90
3542;DHT22;1785;47.388;8.538;2023-11-19T05:09:05;12.20;99.90
3542;DHT22;1785;47.388;8.538;2023-11-19T05:11:33;12.00;99.90
3542;DHT22;1785;47.388;8.538;2023-11-19T05:13:59;12.10;99.90
3542;DHT22;1785;47.388;8.538;2023-11-19T05:16:25;12.10;99.90
3542;DHT22;1785;47.388;8.538;2023-11-19T05:18:52;11.90;99.90
3542;DHT22;1785;47.388;8.538;2023-11-19T05:21:18;11.90;99.90
3542;DHT22;1785;47.388;8.538;2023-11-19T05:23:44;12.00;99.90
3542;DHT22;1785;47.388;8.538;2023-11-19T05:26:17;12.00;99.90
3542;DHT22;1785;47.388;8.538;2023-11-19T05:28:44;11.80;99.90
3542;DHT22;1785;47.388;8.538;2023-11-19T05:31:10;11.70;99.90
3542;DHT22;1785;47.388;8.538;2023-11-19T05:33:36;11.80;99.90
3542;DHT22;1785;47.388;8.538;2023-11-19T05:36:02;11.90;99.90
3542;DHT22;1785;47.388;8.538;2023-11-19T05:38:30;12.00;99.90
3542;DHT22;1785;47.388;8.538;2023-11-19T05:40:56;11.90;99.90
3542;DHT22;1785;47.388;8.538;2023-11-19T05:43:22;11.80;99.90
3542;DHT22;1785;47.388;8.538;2023-11-19T05:45:48;11.80;99.90
3542;DHT22;1785;47.388;8.538;2023-11-19T05:48:14;12.10;99.90
3542;DHT22;1785;47.388;8.538;2023-11-19T05:50:40;12.40;99.90
3542;DHT22;1785;47.388;8.538;2023-11-19T05:53:06;12.40;99.90
3542;DHT22;1785;47.388;8.538;2023-11-19T05:55:36;12.30;99.90
3542;DHT22;1785;47.388;8.538;2023-11-19T05:58:10;12.10;99.90
3542;DHT22;1785;47.388;8.538;2023-11-19T06:00:37;12.20;99.90
3542;DHT22;1785;47.388;8.538;2023-11-19T06:03:03;12.30;99.90
3542;DHT22;1785;47.388;8.538;2023-11-19T06:05:30;12.10;99.90
3542;DHT22;1785;47.388;8.538;2023-11-19T06:07:56;12.20;99.90
3542;DHT22;1785;47.388;8.538;2023-11-19T06:10:23;12.00;99.90
3542;DHT22;1785;47.388;8.538;2023-11-19T06:12:55;12.20;99.90
3542;DHT22;1785;47.388;8.538;2023-11-19T06:15:22;12.30;99.90
3542;DHT22;1785;47.388;8.538;2023-11-19T06:17:48;12.40;99.90
3542;DHT22;1785;47.388;8.538;2023-11-19T06:20:14;12.40;99.90
3542;DHT22;1785;47.388;8.538;2023-11-19T06:22:40;12.20;99.90
3542;DHT22;1785;47.388;8.538;2023-11-19T06:25:08;12.20;99.90
3542;DHT22;1785;47.388;8.538;2023-11-19T06:27:34;12.30;99.90
3542;DHT22;1785;47.388;8.538;2023-11-19T06:30:01;12.50;99.90
3542;DHT22;1785;47.388;8.538;2023-11-19T06:32:28;12.40;99.90
3542;DHT22;1785;47.388;8.538;2023-11-19T06:34:54;12.60;99.90
3542;DHT22;1785;47.388;8.538;2023-11-19T06:37:20;12.70;99.90
3542;DHT22;1785;47.388;8.538;2023-11-19T06:39:46;12.80;99.90
3542;DHT22;1785;47.388;8.538;2023-11-19T06:42:13;12.70;99.90
3542;DHT22;1785;47.388;8.538;2023-11-19T06:44:39;12.60;99.90
3542;DHT22;1785;47.388;8.538;2023-11-19T06:47:05;12.70;99.90
3542;DHT22;1785;47.388;8.538;2023-11-19T06:49:32;12.70;99.90
3542;DHT22;1785;47.388;8.538;2023-11-19T06:51:58;12.70;99.90
3542;DHT22;1785;47.388;8.538;2023-11-19T06:54:24;12.80;99.90
3542;DHT22;1785;47.388;8.538;2023-11-19T06:56:50;12.60;99.90
3542;DHT22;1785;47.388;8.538;2023-11-19T06:59:16;12.80;99.90
3542;DHT22;1785;47.388;8.538;2023-11-19T07:01:43;12.90;99.90
3542;DHT22;1785;47.388;8.538;2023-11-19T07:04:11;12.80;99.90
3542;DHT22;1785;47.388;8.538;2023-11-19T07:06:38;12.90;99.90
3542;DHT22;1785;47.388;8.538;2023-11-19T07:09:05;12.90;99.90
3542;DHT22;1785;47.388;8.538;2023-11-19T07:11:35;12.90;99.90
3542;DHT22;1785;47.388;8.538;2023-11-19T07:14:02;13.10;99.90
3542;DHT22;1785;47.388;8.538;2023-11-19T07:16:28;13.00;99.90
3542;DHT22;1785;47.388;8.538;2023-11-19T07:18:55;12.80;99.90
3542;DHT22;1785;47.388;8.538;2023-11-19T07:21:21;12.90;99.90
3542;DHT22;1785;47.388;8.538;2023-11-19T07:23:47;13.00;99.90
3542;DHT22;1785;47.388;8.538;2023-11-19T07:26:15;13.10;99.90
3542;DHT22;1785;47.388;8.538;2023-11-19T07:28:41;13.20;99.90
3542;DHT22;1785;47.388;8.538;2023-11-19T07:31:07;13.20;99.90
3542;DHT22;1785;47.388;8.538;2023-11-19T07:33:33;12.90;99.90
3542;DHT22;1785;47.388;8.538;2023-11-19T07:35:59;12.80;99.90
3542;DHT22;1785;47.388;8.538;2023-11-19T07:38:26;12.80;99.90
3542;DHT22;1785;47.388;8.538;2023-11-19T07:40:52;12.90;99.90
3542;DHT22;1785;47.388;8.538;2023-11-19T07:43:19;13.10;99.90
3542;DHT22;1785;47.388;8.538;2023-11-19T07:45:45;13.20;99.90
3542;DHT22;1785;47.388;8.538;2023-11-19T07:48:11;13.20;99.90
3542;DHT22;1785;47.388;8.538;2023-11-19T07:50:38;13.20;99.90
3542;DHT22;1785;47.388;8.538;2023-11-19T07:53:06;13.00;99.90
3542;DHT22;1785;47.388;8.538;2023-11-19T07:55:33;12.90;99.90
3542;DHT22;1785;47.388;8.538;2023-11-19T07:57:59;12.90;99.90
3542;DHT22;1785;47.388;8.538;2023-11-19T08:00:25;12.90;99.90
3542;DHT22;1785;47.388;8.538;2023-11-19T08:02:52;13.20;99.90
3542;DHT22;1785;47.388;8.538;2023-11-19T08:05:18;13.40;99.90
3542;DHT22;1785;47.388;8.538;2023-11-19T08:07:44;13.50;99.90
3542;DHT22;1785;47.388;8.538;2023-11-19T08:10:10;13.40;99.90
3542;DHT22;1785;47.388;8.538;2023-11-19T08:12:37;13.40;99.90
3542;DHT22;1785;47.388;8.538;2023-11-19T08:15:03;13.40;99.90
3542;DHT22;1785;47.388;8.538;2023-11-19T08:17:33;13.50;99.90
3542;DHT22;1785;47.388;8.538;2023-11-19T08:19:59;13.30;99.90
3542;DHT22;1785;47.388;8.538;2023-11-19T08:22:26;13.20;99.90
3542;DHT22;1785;47.388;8.538;2023-11-19T08:24:52;13.00;99.90
3542;DHT22;1785;47.388;8.538;2023-11-19T08:27:18;12.90;99.90
3542;DHT22;1785;47.388;8.538;2023-11-19T08:29:45;13.10;99.90
3542;DHT22;1785;47.388;8.538;2023-11-19T08:32:11;13.20;99.90
3542;DHT22;1785;47.388;8.538;2023-11-19T08:34:37;13.10;99.90
3542;DHT22;1785;47.388;8.538;2023-11-19T08:37:03;13.00;99.90
3542;DHT22;1785;47.388;8.538;2023-11-19T08:39:29;13.10;99.90
3542;DHT22;1785;47.388;8.538;2023-11-19T08:41:56;13.10;99.90
3542;DHT22;1785;47.388;8.538;2023-11-19T08:44:22;13.30;99.90
3542;DHT22;1785;47.388;8.538;2023-11-19T08:46:49;13.40;99.90
3542;DHT22;1785;47.388;8.538;2023-11-19T08:49:15;13.40;99.90
3542;DHT22;1785;47.388;8.538;2023-11-19T08:51:41;13.30;99.90
3542;DHT22;1785;47.388;8.538;2023-11-19T08:54:08;13.20;99.90
3542;DHT22;1785;47.388;8.538;2023-11-19T08:56:34;13.30;99.90
3542;DHT22;1785;47.388;8.538;2023-11-19T08:59:01;13.40;99.90
3542;DHT22;1785;47.388;8.538;2023-11-19T09:01:27;13.50;99.90
3542;DHT22;1785;47.388;8.538;2023-11-19T09:03:54;13.70;99.90
3542;DHT22;1785;47.388;8.538;2023-11-19T09:06:21;13.70;99.90
3542;DHT22;1785;47.388;8.538;2023-11-19T09:08:47;13.70;99.90
3542;DHT22;1785;47.388;8.538;2023-11-19T09:11:13;13.80;99.90
3542;DHT22;1785;47.388;8.538;2023-11-19T09:13:39;13.80;99.90
3542;DHT22;1785;47.388;8.538;2023-11-19T09:16:05;13.60;99.90
3542;DHT22;1785;47.388;8.538;2023-11-19T09:18:32;13.60;99.90
3542;DHT22;1785;47.388;8.538;2023-11-19T09:20:58;13.70;99.90
3542;DHT22;1785;47.388;8.538;2023-11-19T09:23:25;13.90;99.90
3542;DHT22;1785;47.388;8.538;2023-11-19T09:25:51;13.80;99.90
3542;DHT22;1785;47.388;8.538;2023-11-19T09:28:17;13.80;99.90
3542;DHT22;1785;47.388;8.538;2023-11-19T09:30:43;13.90;99.90
3542;DHT22;1785;47.388;8.538;2023-11-19T09:33:09;13.90;99.90
3542;DHT22;1785;47.388;8.538;2023-11-19T09:35:35;13.80;99.90
3542;DHT22;1785;47.388;8.538;2023-11-19T09:38:02;13.80;99.90
3542;DHT22;1785;47.388;8.538;2023-11-19T09:40:31;13.90;99.90
3542;DHT22;1785;47.388;8.538;2023-11-19T09:42:57;13.90;99.90
3542;DHT22;1785;47.388;8.538;2023-11-19T09:45:26;13.80;99.90
3542;DHT22;1785;47.388;8.538;2023-11-19T09:47:53;13.90;99.90
3542;DHT22;1785;47.388;8.538;2023-11-19T09:50:22;14.00;99.90
3542;DHT22;1785;47.388;8.538;2023-11-19T09:52:49;14.00;99.90
3542;DHT22;1785;47.388;8.538;2023-11-19T09:55:17;14.10;99.90
3542;DHT22;1785;47.388;8.538;2023-11-19T09:57:44;14.00;99.90
3542;DHT22;1785;47.388;8.538;2023-11-19T10:00:13;14.20;99.90
3542;DHT22;1785;47.388;8.538;2023-11-19T10:02:41;14.10;99.90
3542;DHT22;1785;47.388;8.538;2023-11-19T10:05:11;14.20;99.90
3542;DHT22;1785;47.388;8.538;2023-11-19T10:07:38;14.10;99.90
3542;DHT22;1785;47.388;8.538;2023-11-19T10:10:05;14.10;99.90
3542;DHT22;1785;47.388;8.538;2023-11-19T10:12:32;14.10;99.90
3542;DHT22;1785;47.388;8.538;2023-11-19T10:14:58;14.10;99.90
3542;DHT22;1785;47.388;8.538;2023-11-19T10:17:27;14.00;99.90
3542;DHT22;1785;47.388;8.538;2023-11-19T10:19:54;13.90;99.90
3542;DHT22;1785;47.388;8.538;2023-11-19T10:22:21;13.90;99.90
3542;DHT22;1785;47.388;8.538;2023-11-19T10:24:48;13.70;99.90
3542;DHT22;1785;47.388;8.538;2023-11-19T10:27:14;13.80;99.90
3542;DHT22;1785;47.388;8.538;2023-11-19T10:29:44;14.00;99.90
3542;DHT22;1785;47.388;8.538;2023-11-19T10:32:12;13.90;99.90
3542;DHT22;1785;47.388;8.538;2023-11-19T10:34:38;13.90;99.90
3542;DHT22;1785;47.388;8.538;2023-11-19T10:37:06;13.80;99.90
3542;DHT22;1785;47.388;8.538;2023-11-19T10:39:52;14.00;99.90
3542;DHT22;1785;47.388;8.538;2023-11-19T10:42:20;14.00;99.90
3542;DHT22;1785;47.388;8.538;2023-11-19T10:44:47;14.00;99.90
3542;DHT22;1785;47.388;8.538;2023-11-19T10:47:14;14.00;99.90
3542;DHT22;1785;47.388;8.538;2023-11-19T10:49:40;14.00;99.90
3542;DHT22;1785;47.388;8.538;2023-11-19T10:52:08;13.90;99.90
3542;DHT22;1785;47.388;8.538;2023-11-19T10:54:35;13.80;99.90
3542;DHT22;1785;47.388;8.538;2023-11-19T10:57:04;14.00;99.90
3542;DHT22;1785;47.388;8.538;2023-11-19T10:59:32;14.20;99.90
3542;DHT22;1785;47.388;8.538;2023-11-19T11:02:03;14.30;99.90
3542;DHT22;1785;47.388;8.538;2023-11-19T11:04:33;14.30;99.90
3542;DHT22;1785;47.388;8.538;2023-11-19T11:07:00;14.20;99.90
3542;DHT22;1785;47.388;8.538;2023-11-19T11:09:27;14.30;99.90
3542;DHT22;1785;47.388;8.538;2023-11-19T11:11:54;14.30;99.90
3542;DHT22;1785;47.388;8.538;2023-11-19T11:14:22;14.10;99.90
3542;DHT22;1785;47.388;8.538;2023-11-19T11:16:50;13.90;99.90
3542;DHT22;1785;47.388;8.538;2023-11-19T11:19:17;13.80;99.90
3542;DHT22;1785;47.388;8.538;2023-11-19T11:21:46;14.00;99.90
3542;DHT22;1785;47.388;8.538;2023-11-19T11:24:47;14.00;99.90
3542;DHT22;1785;47.388;8.538;2023-11-19T11:27:36;14.10;99.90
3542;DHT22;1785;47.388;8.538;2023-11-19T11:30:11;14.20;99.90
3542;DHT22;1785;47.388;8.538;2023-11-19T11:32:45;14.40;99.90
3542;DHT22;1785;47.388;8.538;2023-11-19T11:35:27;14.40;99.90
3542;DHT22;1785;47.388;8.538;2023-11-19T11:38:00;14.20;99.90
3542;DHT22;1785;47.388;8.538;2023-11-19T11:40:27;14.20;99.90
3542;DHT22;1785;47.388;8.538;2023-11-19T11:42:53;14.40;99.90
3542;DHT22;1785;47.388;8.538;2023-11-19T11:45:38;14.40;99.90
3542;DHT22;1785;47.388;8.538;2023-11-19T11:48:15;14.50;99.90
3542;DHT22;1785;47.388;8.538;2023-11-19T11:50:53;14.50;99.90
3542;DHT22;1785;47.388;8.538;2023-11-19T11:53:22;14.30;99.90
3542;DHT22;1785;47.388;8.538;2023-11-19T11:56:00;14.30;99.90
3542;DHT22;1785;47.388;8.538;2023-11-19T11:58:35;14.30;99.90
3542;DHT22;1785;47.388;8.538;2023-11-19T12:01:04;14.40;99.90
3542;DHT22;1785;47.388;8.538;2023-11-19T12:03:32;14.40;99.90
3542;DHT22;1785;47.388;8.538;2023-11-19T12:05:59;14.30;99.90
3542;DHT22;1785;47.388;8.538;2023-11-19T12:08:26;14.30;99.90
3542;DHT22;1785;47.388;8.538;2023-11-19T12:10:54;14.30;99.90
3542;DHT22;1785;47.388;8.538;2023-11-19T12:13:21;14.20;99.90
3542;DHT22;1785;47.388;8.538;2023-11-19T12:16:07;14.20;99.90
3542;DHT22;1785;47.388;8.538;2023-11-19T12:18:33;14.30;99.90
3542;DHT22;1785;47.388;8.538;2023-11-19T12:21:00;14.40;99.90
3542;DHT22;1785;47.388;8.538;2023-11-19T12:23:29;14.60;99.90
3542;DHT22;1785;47.388;8.538;2023-11-19T12:25:55;14.70;99.90
3542;DHT22;1785;47.388;8.538;2023-11-19T12:28:21;14.60;99.90
3542;DHT22;1785;47.388;8.538;2023-11-19T12:30:49;14.40;99.90
3542;DHT22;1785;47.388;8.538;2023-11-19T12:33:16;14.50;99.90
3542;DHT22;1785;47.388;8.538;2023-11-19T12:35:44;14.60;99.90
3542;DHT22;1785;47.388;8.538;2023-11-19T12:38:19;14.60;99.90
3542;DHT22;1785;47.388;8.538;2023-11-19T12:40:46;14.60;99.90
3542;DHT22;1785;47.388;8.538;2023-11-19T12:43:21;14.80;99.90
3542;DHT22;1785;47.388;8.538;2023-11-19T12:45:47;14.70;99.90
3542;DHT22;1785;47.388;8.538;2023-11-19T12:48:13;14.80;99.90
3542;DHT22;1785;47.388;8.538;2023-11-19T12:50:50;14.80;99.90
3542;DHT22;1785;47.388;8.538;2023-11-19T12:53:16;14.80;99.90
3542;DHT22;1785;47.388;8.538;2023-11-19T12:55:44;14.70;99.90
3542;DHT22;1785;47.388;8.538;2023-11-19T12:58:10;14.90;99.90
3542;DHT22;1785;47.388;8.538;2023-11-19T13:00:36;14.90;99.90
3542;DHT22;1785;47.388;8.538;2023-11-19T13:03:03;14.90;99.90
3542;DHT22;1785;47.388;8.538;2023-11-19T13:05:31;15.00;99.90
3542;DHT22;1785;47.388;8.538;2023-11-19T13:07:59;15.00;99.90
3542;DHT22;1785;47.388;8.538;2023-11-19T13:10:26;15.00;99.90
3542;DHT22;1785;47.388;8.538;2023-11-19T13:13:05;14.90;99.90
3542;DHT22;1785;47.388;8.538;2023-11-19T13:15:32;15.00;99.90
3542;DHT22;1785;47.388;8.538;2023-11-19T13:17:58;15.10;99.90
3542;DHT22;1785;47.388;8.538;2023-11-19T13:20:24;15.20;99.90
3542;DHT22;1785;47.388;8.538;2023-11-19T13:22:55;15.10;99.90
3542;DHT22;1785;47.388;8.538;2023-11-19T13:25:21;15.20;99.90
3542;DHT22;1785;47.388;8.538;2023-11-19T13:27:47;15.30;99.90
3542;DHT22;1785;47.388;8.538;2023-11-19T13:30:15;15.20;99.90
3542;DHT22;1785;47.388;8.538;2023-11-19T13:32:41;15.00;99.90
3542;DHT22;1785;47.388;8.538;2023-11-19T13:35:09;15.10;99.90
3542;DHT22;1785;47.388;8.538;2023-11-19T13:37:35;15.10;99.90
3542;DHT22;1785;47.388;8.538;2023-11-19T13:40:01;15.10;99.90
3542;DHT22;1785;47.388;8.538;2023-11-19T13:42:28;15.30;99.90
3542;DHT22;1785;47.388;8.538;2023-11-19T13:44:54;15.10;99.90
3542;DHT22;1785;47.388;8.538;2023-11-19T13:47:22;15.10;99.90
3542;DHT22;1785;47.388;8.538;2023-11-19T13:49:49;15.00;99.90
3542;DHT22;1785;47.388;8.538;2023-11-19T13:52:15;14.80;99.90
3542;DHT22;1785;47.388;8.538;2023-11-19T13:54:41;14.90;99.90
3542;DHT22;1785;47.388;8.538;2023-11-19T13:57:07;15.00;99.90
3542;DHT22;1785;47.388;8.538;2023-11-19T13:59:39;14.90;99.90
3542;DHT22;1785;47.388;8.538;2023-11-19T14:02:05;14.80;99.90
3542;DHT22;1785;47.388;8.538;2023-11-19T14:04:33;14.80;99.90
3542;DHT22;1785;47.388;8.538;2023-11-19T14:06:59;14.70;99.90
3542;DHT22;1785;47.388;8.538;2023-11-19T14:09:25;14.70;99.90
3542;DHT22;1785;47.388;8.538;2023-11-19T14:11:51;14.70;99.90
3542;DHT22;1785;47.388;8.538;2023-11-19T14:14:17;14.80;99.90
3542;DHT22;1785;47.388;8.538;2023-11-19T14:16:43;14.80;99.90
3542;DHT22;1785;47.388;8.538;2023-11-19T14:19:10;14.80;99.90
3542;DHT22;1785;47.388;8.538;2023-11-19T14:21:36;14.70;99.90
3542;DHT22;1785;47.388;8.538;2023-11-19T14:24:03;14.90;99.90
3542;DHT22;1785;47.388;8.538;2023-11-19T14:26:30;14.90;99.90
3542;DHT22;1785;47.388;8.538;2023-11-19T14:28:56;14.90;99.90
3542;DHT22;1785;47.388;8.538;2023-11-19T14:31:22;15.10;99.90
3542;DHT22;1785;47.388;8.538;2023-11-19T14:33:48;14.90;99.90
3542;DHT22;1785;47.388;8.538;2023-11-19T14:36:15;15.00;99.90
3542;DHT22;1785;47.388;8.538;2023-11-19T14:38:42;14.80;99.90
3542;DHT22;1785;47.388;8.538;2023-11-19T14:41:08;14.90;99.90
3542;DHT22;1785;47.388;8.538;2023-11-19T14:43:34;14.80;99.90
3542;DHT22;1785;47.388;8.538;2023-11-19T14:46:00;15.00;99.90
3542;DHT22;1785;47.388;8.538;2023-11-19T14:48:28;14.90;99.90
3542;DHT22;1785;47.388;8.538;2023-11-19T14:50:54;14.80;99.90
3542;DHT22;1785;47.388;8.538;2023-11-19T14:53:20;14.90;99.90
3542;DHT22;1785;47.388;8.538;2023-11-19T14:55:48;14.80;99.90
3542;DHT22;1785;47.388;8.538;2023-11-19T14:58:15;14.90;99.90
3542;DHT22;1785;47.388;8.538;2023-11-19T15:00:41;14.80;99.90
3542;DHT22;1785;47.388;8.538;2023-11-19T15:03:07;14.70;99.90
3542;DHT22;1785;47.388;8.538;2023-11-19T15:05:34;14.70;99.90
3542;DHT22;1785;47.388;8.538;2023-11-19T15:08:00;14.80;99.90
3542;DHT22;1785;47.388;8.538;2023-11-19T15:10:28;14.70;99.90
3542;DHT22;1785;47.388;8.538;2023-11-19T15:12:55;14.90;99.90
3542;DHT22;1785;47.388;8.538;2023-11-19T15:15:21;15.00;99.90
3542;DHT22;1785;47.388;8.538;2023-11-19T15:17:47;15.00;99.90
3542;DHT22;1785;47.388;8.538;2023-11-19T15:20:13;15.00;99.90
3542;DHT22;1785;47.388;8.538;2023-11-19T15:22:43;15.00;99.90
3542;DHT22;1785;47.388;8.538;2023-11-19T15:25:10;15.00;99.90
3542;DHT22;1785;47.388;8.538;2023-11-19T15:27:36;15.00;99.90
3542;DHT22;1785;47.388;8.538;2023-11-19T15:30:03;14.90;99.90
3542;DHT22;1785;47.388;8.538;2023-11-19T15:32:30;14.80;99.90
3542;DHT22;1785;47.388;8.538;2023-11-19T15:34:57;14.80;99.90
3542;DHT22;1785;47.388;8.538;2023-11-19T15:37:23;14.80;99.90
3542;DHT22;1785;47.388;8.538;2023-11-19T15:39:49;14.70;99.90
3542;DHT22;1785;47.388;8.538;2023-11-19T15:42:16;14.60;99.90
3542;DHT22;1785;47.388;8.538;2023-11-19T15:44:43;14.70;99.90
3542;DHT22;1785;47.388;8.538;2023-11-19T15:47:10;14.60;99.90
3542;DHT22;1785;47.388;8.538;2023-11-19T15:49:36;14.60;99.90
3542;DHT22;1785;47.388;8.538;2023-11-19T15:52:03;14.60;99.90
3542;DHT22;1785;47.388;8.538;2023-11-19T15:54:30;14.60;99.90
3542;DHT22;1785;47.388;8.538;2023-11-19T15:56:56;14.90;99.90
3542;DHT22;1785;47.388;8.538;2023-11-19T15:59:22;14.80;99.90
3542;DHT22;1785;47.388;8.538;2023-11-19T16:01:48;14.80;99.90